aviador You're here:

KGAD Decoded Metar

GADSDEN MUNI in AL, USA
Report Time2017-07-23 05:56:00
UTC Time2017-07-23 06:53:46
Flight Rules vfr VFR
WindCalm
Visibility9999 m
Phenomena:N/A
Clouds:N/A
CeilingNone
Temp24°C (ISA +10)
Dew Point24°C (100% RH)
QNH1015 hPa
Density Alt2,070 ft
Elevation568 ft
Report Wrong Elevation
Raw Report
METAR KGAD 230556Z AUTO 00000KT 8SM CLR 24/24 A2997 RMK AO2 SLP155
T02390239 10272 20239 403440228 58003=

Extra information for KGAD:More info

Metar Taf Metar & Taf Last 4 Metars F.Rules Stats Wind Profile Meteogram Temp Stats Airport Information Weather charts Add Link Nearby VenuesMetar ALERT Operation Metar Decoded Social comments

AIRNAV info for KGAD